Terminal Aerodrome Forecast
Issued by NWS Goodland, KS

Home | Current Version | Previous Version | Text Only | Print | Product List | Glossary On
Versions: 1 2 3 4 5 6 7 8 9 10 11 12 13 14 15 16 17 18
000
FTUS43 KGLD 131836 AAB
TAFGLD
TAF AMD
KGLD 131836Z 1319/1418 33023G35KT P6SM SKC
     FM132200 36015G25KT P6SM SCT150
     FM140000 33010KT P6SM BKN100
     FM140700 33013G22KT P6SM BKN040=

USA.gov is the U.S. government's official web portal to all federal, state and local government web resources and services.